Time;durP1;ratioP1;P1;durP2;ratioP2;P2;SDS_P1;SDS_P2;PMS_P1;PMS_P2;Temp;Humidity;BMP_temperature;BMP_pressure;BME280_temperature;BME280_humidity;BME280_pressure;Samples;Min_cycle;Max_cycle;Signal;HPM_P1;HPM_P2
2021/03/27 00:00:18;;;;;;;7.68;6.13;;;;;;;;;;2049088;28;20214;-62
2021/03/27 00:01:28;;;;;;;7.68;6.80;;;;;;;;;;2049034;29;20171;-61
2021/03/27 00:02:31;;;;;;;7.32;6.25;;;;;;;;;;2046206;28;20171;-61
2021/03/27 00:03:37;;;;;;;8.13;7.00;;;;;;;;;;2057218;28;20503;-60
2021/03/27 00:04:47;;;;;;;7.72;6.75;;;;;;;;;;2052281;28;20895;-61
2021/03/27 00:05:54;;;;;;;8.25;6.60;;;;;;;;;;2049666;29;20234;-57
2021/03/27 00:06:59;;;;;;;7.00;6.38;;;;;;;;;;2054946;28;20174;-56
2021/03/27 00:07:59;;;;;;;6.88;6.20;;;;;;;;;;2052942;28;20171;-61
2021/03/27 00:09:03;;;;;;;6.95;6.28;;;;;;;;;;2052419;28;20548;-60
2021/03/27 00:10:09;;;;;;;6.97;5.82;;;;;;;;;;2043037;29;20200;-60
2021/03/27 00:11:30;;;;;;;7.50;6.70;;;;;;;;;;2048651;29;20169;-60
2021/03/27 00:12:53;;;;;;;7.05;6.38;;;;;;;;;;2032632;28;20178;-56
2021/03/27 00:14:19;;;;;;;7.13;6.30;;;;;;;;;;2048715;29;20718;-60
2021/03/27 00:15:20;;;;;;;7.75;6.20;;;;;;;;;;2015808;28;20194;-58
2021/03/27 00:16:22;;;;;;;8.32;6.97;;;;;;;;;;2057220;28;20630;-58
2021/03/27 00:17:38;;;;;;;7.47;6.78;;;;;;;;;;2054691;28;20174;-59
2021/03/27 00:18:58;;;;;;;6.50;5.93;;;;;;;;;;2051500;28;20710;-59
2021/03/27 00:20:02;;;;;;;7.20;6.43;;;;;;;;;;2049402;29;20171;-60
2021/03/27 00:21:13;;;;;;;9.70;7.13;;;;;;;;;;2049269;29;20556;-60
2021/03/27 00:22:24;;;;;;;8.40;6.60;;;;;;;;;;2052264;28;20634;-59
2021/03/27 00:23:33;;;;;;;7.85;6.72;;;;;;;;;;2055600;28;20272;-62
2021/03/27 00:24:42;;;;;;;7.15;6.45;;;;;;;;;;2053554;28;20198;-62
2021/03/27 00:25:47;;;;;;;8.95;6.70;;;;;;;;;;2047449;29;20179;-62
2021/03/27 00:26:55;;;;;;;6.53;5.90;;;;;;;;;;2049159;28;20170;-60
2021/03/27 00:28:06;;;;;;;7.18;6.47;;;;;;;;;;2056388;28;20800;-59
2021/03/27 00:29:24;;;;;;;7.03;6.40;;;;;;;;;;2055510;28;20708;-57
2021/03/27 00:30:27;;;;;;;7.07;6.35;;;;;;;;;;2057099;28;20186;-60
2021/03/27 00:31:33;;;;;;;7.75;6.25;;;;;;;;;;2056519;28;20273;-59
2021/03/27 00:32:39;;;;;;;7.35;6.65;;;;;;;;;;2054139;28;20178;-57
2021/03/27 00:33:52;;;;;;;7.38;6.50;;;;;;;;;;2054515;28;20180;-62
2021/03/27 00:34:56;;;;;;;6.78;6.22;;;;;;;;;;2040457;29;20820;-57
2021/03/27 00:35:58;;;;;;;7.72;6.43;;;;;;;;;;2041137;29;20199;-62
2021/03/27 00:37:03;;;;;;;7.75;6.65;;;;;;;;;;2050493;28;20230;-61
2021/03/27 00:38:07;;;;;;;7.18;6.50;;;;;;;;;;2056988;28;20650;-61
2021/03/27 00:39:20;;;;;;;8.55;7.18;;;;;;;;;;2055306;28;20237;-61
2021/03/27 00:40:22;;;;;;;7.38;6.68;;;;;;;;;;2052960;28;20815;-60
2021/03/27 00:41:26;;;;;;;8.45;7.22;;;;;;;;;;2048513;29;20201;-61
2021/03/27 00:42:31;;;;;;;7.40;6.70;;;;;;;;;;2048327;28;20187;-60
2021/03/27 00:43:36;;;;;;;7.18;6.47;;;;;;;;;;2053071;28;20202;-63
2021/03/27 00:44:41;;;;;;;7.63;6.93;;;;;;;;;;2049320;29;20681;-58
2021/03/27 00:45:43;;;;;;;8.32;6.35;;;;;;;;;;2049374;29;20179;-61
2021/03/27 00:46:44;;;;;;;8.38;6.85;;;;;;;;;;2050093;28;20276;-63
2021/03/27 00:47:50;;;;;;;7.97;7.18;;;;;;;;;;2040585;29;20234;-61
2021/03/27 00:48:58;;;;;;;6.53;5.88;;;;;;;;;;2046868;29;20238;-61
2021/03/27 00:50:04;;;;;;;8.35;6.30;;;;;;;;;;2034858;29;20187;-61
2021/03/27 00:51:10;;;;;;;7.93;7.13;;;;;;;;;;2049246;28;20158;-59
2021/03/27 00:52:12;;;;;;;7.45;6.63;;;;;;;;;;2056799;28;20181;-59
2021/03/27 00:53:29;;;;;;;6.63;6.03;;;;;;;;;;2056145;28;20565;-58
2021/03/27 00:54:35;;;;;;;8.57;7.72;;;;;;;;;;2047147;29;20182;-62
2021/03/27 00:55:39;;;;;;;9.18;7.28;;;;;;;;;;2041005;29;20203;-62
2021/03/27 00:56:58;;;;;;;9.95;6.82;;;;;;;;;;2040317;29;20175;-63
2021/03/27 00:58:14;;;;;;;7.47;6.72;;;;;;;;;;2041025;29;20179;-62
2021/03/27 00:59:17;;;;;;;9.23;7.05;;;;;;;;;;2044334;28;20182;-61
2021/03/27 01:00:27;;;;;;;7.65;6.80;;;;;;;;;;2060017;23;20608;-56
2021/03/27 01:01:47;;;;;;;10.30;7.72;;;;;;;;;;2039503;29;20219;-60
2021/03/27 01:03:08;;;;;;;8.07;7.20;;;;;;;;;;2037899;29;20223;-59
2021/03/27 01:04:32;;;;;;;8.32;7.20;;;;;;;;;;2041768;29;20200;-55
2021/03/27 01:05:55;;;;;;;9.88;7.30;;;;;;;;;;2039121;29;20183;-59
2021/03/27 01:07:19;;;;;;;8.18;7.38;;;;;;;;;;2030548;29;20555;-58
2021/03/27 01:08:55;;;;;;;9.18;7.88;;;;;;;;;;2032153;29;20200;-54
2021/03/27 01:10:36;;;;;;;9.85;7.65;;;;;;;;;;2040728;29;20184;-56
2021/03/27 01:12:08;;;;;;;8.70;7.85;;;;;;;;;;2032656;29;20731;-56
2021/03/27 01:13:10;;;;;;;8.93;8.02;;;;;;;;;;2026310;29;20184;-54
2021/03/27 01:14:14;;;;;;;8.95;8.15;;;;;;;;;;2031327;29;20752;-57
2021/03/27 01:15:26;;;;;;;9.90;8.90;;;;;;;;;;2038349;29;20185;-57
2021/03/27 01:16:31;;;;;;;11.80;8.93;;;;;;;;;;2032985;29;20255;-58
2021/03/27 01:17:34;;;;;;;12.57;8.23;;;;;;;;;;2031927;29;20180;-55
2021/03/27 01:18:45;;;;;;;10.15;9.05;;;;;;;;;;2032805;29;20782;-58
2021/03/27 01:19:48;;;;;;;10.93;9.43;;;;;;;;;;2048372;29;20226;-58
2021/03/27 01:20:51;;;;;;;13.20;10.10;;;;;;;;;;2040768;29;20253;-60
2021/03/27 01:21:52;;;;;;;10.50;9.48;;;;;;;;;;2043689;29;20183;-55
2021/03/27 01:22:53;;;;;;;12.20;9.63;;;;;;;;;;2033148;29;20176;-56
2021/03/27 01:23:55;;;;;;;10.25;9.18;;;;;;;;;;2034921;29;20180;-60
2021/03/27 01:24:56;;;;;;;13.48;9.50;;;;;;;;;;2041402;29;20186;-55
2021/03/27 01:25:57;;;;;;;9.60;8.60;;;;;;;;;;2038667;29;20207;-58
2021/03/27 01:27:03;;;;;;;10.00;8.75;;;;;;;;;;2032674;29;20180;-59
2021/03/27 01:28:03;;;;;;;11.68;10.48;;;;;;;;;;2028453;29;20614;-56
2021/03/27 01:29:06;;;;;;;11.30;7.63;;;;;;;;;;2026513;29;20181;-60
2021/03/27 01:30:11;;;;;;;11.55;10.35;;;;;;;;;;2038203;29;20171;-53
2021/03/27 01:31:15;;;;;;;12.63;11.32;;;;;;;;;;2035859;29;20180;-56
2021/03/27 01:32:18;;;;;;;9.85;8.85;;;;;;;;;;2043520;29;20179;-58
2021/03/27 01:33:25;;;;;;;11.15;9.85;;;;;;;;;;2039007;29;20378;-60
2021/03/27 01:34:36;;;;;;;9.00;8.20;;;;;;;;;;2035830;29;20228;-56
2021/03/27 01:35:42;;;;;;;12.23;9.10;;;;;;;;;;2045923;29;20680;-58
2021/03/27 01:36:44;;;;;;;10.82;9.75;;;;;;;;;;2041854;29;20199;-56
2021/03/27 01:37:48;;;;;;;10.30;8.93;;;;;;;;;;2032078;29;20184;-56
2021/03/27 01:38:51;;;;;;;9.82;8.82;;;;;;;;;;2034315;29;20180;-57
2021/03/27 01:40:13;;;;;;;9.65;8.68;;;;;;;;;;2032811;29;20180;-56
2021/03/27 01:41:13;;;;;;;10.40;9.43;;;;;;;;;;2040499;29;20171;-59
2021/03/27 01:42:31;;;;;;;9.95;8.63;;;;;;;;;;2041781;29;20480;-53
2021/03/27 01:43:31;;;;;;;9.13;7.88;;;;;;;;;;2045422;29;20446;-56
2021/03/27 01:44:35;;;;;;;8.13;7.47;;;;;;;;;;2048760;28;20172;-54
2021/03/27 01:45:38;;;;;;;8.65;7.50;;;;;;;;;;2043105;29;20277;-55
2021/03/27 01:46:52;;;;;;;8.20;7.45;;;;;;;;;;2040545;29;20176;-56
2021/03/27 01:47:56;;;;;;;6.90;6.20;;;;;;;;;;2040754;29;20571;-57
2021/03/27 01:48:56;;;;;;;6.10;5.70;;;;;;;;;;2045998;29;20175;-57
2021/03/27 01:49:56;;;;;;;7.63;6.07;;;;;;;;;;2041297;29;20179;-56
2021/03/27 01:51:08;;;;;;;6.60;6.00;;;;;;;;;;2047873;28;20246;-55
2021/03/27 01:52:27;;;;;;;5.95;5.25;;;;;;;;;;2038021;29;20193;-54
2021/03/27 01:53:33;;;;;;;5.43;5.00;;;;;;;;;;2047835;29;20193;-54
2021/03/27 01:54:36;;;;;;;6.20;5.63;;;;;;;;;;2041306;29;20226;-54
2021/03/27 01:55:51;;;;;;;5.47;5.00;;;;;;;;;;2041475;29;20632;-58
2021/03/27 01:57:07;;;;;;;5.63;5.13;;;;;;;;;;2033817;29;20228;-56
2021/03/27 01:58:22;;;;;;;5.33;4.90;;;;;;;;;;2033724;29;20176;-55
2021/03/27 01:59:28;;;;;;;6.40;5.00;;;;;;;;;;2043041;29;20179;-56
2021/03/27 02:00:32;;;;;;;6.03;4.33;;;;;;;;;;2045221;29;20223;-55
2021/03/27 02:01:32;;;;;;;5.07;4.67;;;;;;;;;;2034875;29;20287;-56
2021/03/27 02:02:34;;;;;;;5.10;4.70;;;;;;;;;;2037399;29;20177;-59
2021/03/27 02:03:38;;;;;;;4.73;4.37;;;;;;;;;;2051140;29;20203;-54
2021/03/27 02:05:04;;;;;;;6.10;5.50;;;;;;;;;;2052051;29;20171;-58
2021/03/27 02:06:14;;;;;;;5.10;4.50;;;;;;;;;;2044387;29;20230;-59
2021/03/27 02:07:18;;;;;;;5.23;4.83;;;;;;;;;;2049457;29;20222;-59
2021/03/27 02:08:37;;;;;;;5.10;4.60;;;;;;;;;;2041689;29;20801;-58
2021/03/27 02:09:47;;;;;;;4.57;3.80;;;;;;;;;;2046749;29;20218;-57
2021/03/27 02:11:01;;;;;;;4.40;4.00;;;;;;;;;;2050205;28;20194;-55
2021/03/27 02:12:20;;;;;;;4.67;4.20;;;;;;;;;;2047295;29;20167;-59
2021/03/27 02:13:24;;;;;;;3.37;3.17;;;;;;;;;;2042000;29;20223;-58
2021/03/27 02:14:43;;;;;;;4.03;3.73;;;;;;;;;;2041607;29;20184;-57
2021/03/27 02:15:43;;;;;;;4.37;4.07;;;;;;;;;;2042253;29;20175;-59
2021/03/27 02:16:58;;;;;;;3.50;3.30;;;;;;;;;;2033832;29;20589;-58
2021/03/27 02:18:01;;;;;;;4.93;2.90;;;;;;;;;;2035908;29;20184;-59
2021/03/27 02:19:11;;;;;;;3.37;3.17;;;;;;;;;;2048858;29;20189;-60
2021/03/27 02:20:30;;;;;;;3.43;2.97;;;;;;;;;;2043312;29;20950;-56
2021/03/27 02:21:49;;;;;;;3.13;2.27;;;;;;;;;;2043229;29;20180;-61
2021/03/27 02:23:08;;;;;;;2.80;2.70;;;;;;;;;;2041510;29;20183;-58
2021/03/27 02:24:27;;;;;;;3.57;2.80;;;;;;;;;;2043522;29;20226;-56
2021/03/27 02:25:36;;;;;;;2.33;2.23;;;;;;;;;;2042274;29;20239;-58
2021/03/27 02:26:42;;;;;;;3.23;2.90;;;;;;;;;;2033798;29;20688;-58
2021/03/27 02:28:01;;;;;;;2.80;2.60;;;;;;;;;;2034552;29;20583;-57
2021/03/27 02:29:32;;;;;;;3.17;2.73;;;;;;;;;;2042151;29;20258;-58
2021/03/27 02:30:34;;;;;;;3.10;2.90;;;;;;;;;;2044566;28;20203;-58
2021/03/27 02:31:34;;;;;;;3.40;3.17;;;;;;;;;;2041704;29;20183;-59
2021/03/27 02:32:40;;;;;;;3.27;3.07;;;;;;;;;;2046858;29;20183;-58
2021/03/27 02:33:47;;;;;;;3.87;3.57;;;;;;;;;;2043606;29;20194;-59
2021/03/27 02:34:52;;;;;;;3.50;3.30;;;;;;;;;;2041781;29;20171;-58
2021/03/27 02:35:52;;;;;;;3.93;3.63;;;;;;;;;;2041868;29;20636;-60
2021/03/27 02:37:04;;;;;;;3.90;3.60;;;;;;;;;;2043141;29;20269;-60
2021/03/27 02:38:23;;;;;;;4.00;3.70;;;;;;;;;;2041940;29;20164;-60
2021/03/27 02:39:33;;;;;;;3.70;3.47;;;;;;;;;;2043029;29;20183;-60
2021/03/27 02:40:35;;;;;;;3.90;3.60;;;;;;;;;;2042412;29;20195;-60
2021/03/27 02:41:44;;;;;;;3.53;3.33;;;;;;;;;;2038122;29;20188;-57
2021/03/27 02:42:48;;;;;;;4.83;4.43;;;;;;;;;;2041157;29;20182;-57
2021/03/27 02:43:52;;;;;;;4.40;4.10;;;;;;;;;;2033993;29;20204;-59
2021/03/27 02:45:01;;;;;;;4.10;3.80;;;;;;;;;;2041411;29;20183;-58
2021/03/27 02:46:13;;;;;;;5.40;4.93;;;;;;;;;;2048493;29;20211;-58
2021/03/27 02:47:19;;;;;;;5.17;4.77;;;;;;;;;;2036246;29;20176;-57
2021/03/27 02:48:22;;;;;;;4.77;4.37;;;;;;;;;;2038803;29;20191;-57
2021/03/27 02:49:29;;;;;;;5.37;4.97;;;;;;;;;;2050287;29;20236;-59
2021/03/27 02:50:48;;;;;;;4.53;4.20;;;;;;;;;;2049030;28;20207;-59
2021/03/27 02:51:54;;;;;;;5.90;5.40;;;;;;;;;;2049982;29;20656;-57
2021/03/27 02:52:54;;;;;;;5.50;5.00;;;;;;;;;;2035622;29;20160;-59
2021/03/27 02:54:03;;;;;;;5.93;5.40;;;;;;;;;;2044051;29;20255;-57
2021/03/27 02:55:18;;;;;;;6.37;5.73;;;;;;;;;;2041612;29;20160;-56
2021/03/27 02:56:28;;;;;;;6.47;5.87;;;;;;;;;;2045162;29;20175;-56
2021/03/27 02:57:40;;;;;;;8.90;6.23;;;;;;;;;;2044952;29;20552;-55
2021/03/27 02:58:55;;;;;;;6.27;5.77;;;;;;;;;;2047945;29;20179;-56
2021/03/27 03:00:14;;;;;;;6.43;5.70;;;;;;;;;;2037737;29;20179;-57
2021/03/27 03:01:31;;;;;;;7.13;6.43;;;;;;;;;;2046017;29;20193;-56
2021/03/27 03:02:44;;;;;;;6.70;5.97;;;;;;;;;;2038849;29;20214;-59
2021/03/27 03:04:03;;;;;;;7.67;6.40;;;;;;;;;;2033222;29;20200;-54
2021/03/27 03:05:16;;;;;;;8.27;6.37;;;;;;;;;;2027728;29;20177;-61
2021/03/27 03:06:28;;;;;;;7.63;6.83;;;;;;;;;;2036735;29;20243;-57
2021/03/27 03:07:31;;;;;;;7.93;7.13;;;;;;;;;;2044231;29;20175;-57
2021/03/27 03:08:35;;;;;;;10.77;8.13;;;;;;;;;;2044992;29;20226;-55
2021/03/27 03:09:45;;;;;;;7.57;6.77;;;;;;;;;;2047542;29;20182;-57
2021/03/27 03:11:03;;;;;;;8.57;7.67;;;;;;;;;;2046782;28;20211;-55
2021/03/27 03:12:03;;;;;;;9.40;8.50;;;;;;;;;;2029100;29;20201;-56
2021/03/27 03:13:04;;;;;;;9.90;7.83;;;;;;;;;;2035852;29;20192;-56
2021/03/27 03:14:23;;;;;;;9.50;8.50;;;;;;;;;;2046935;29;20217;-57
2021/03/27 03:15:27;;;;;;;8.90;8.00;;;;;;;;;;2037631;29;20262;-56
2021/03/27 03:16:37;;;;;;;9.43;7.93;;;;;;;;;;2043531;29;20184;-57
2021/03/27 03:17:47;;;;;;;9.70;8.13;;;;;;;;;;2033379;29;20189;-55
2021/03/27 03:19:04;;;;;;;10.63;8.90;;;;;;;;;;2035841;29;20182;-59
2021/03/27 03:20:16;;;;;;;9.57;7.17;;;;;;;;;;2036834;29;20173;-55
2021/03/27 03:21:35;;;;;;;9.20;8.30;;;;;;;;;;2045481;29;20267;-58
2021/03/27 03:22:38;;;;;;;12.03;8.90;;;;;;;;;;2043189;29;20271;-58
2021/03/27 03:23:38;;;;;;;8.57;7.77;;;;;;;;;;2027147;29;20246;-55
2021/03/27 03:24:46;;;;;;;9.47;8.43;;;;;;;;;;2031857;29;20188;-57
2021/03/27 03:25:54;;;;;;;8.33;7.43;;;;;;;;;;2041708;29;20180;-56
2021/03/27 03:26:54;;;;;;;8.17;7.37;;;;;;;;;;2041495;29;20942;-57
2021/03/27 03:28:02;;;;;;;9.07;7.20;;;;;;;;;;2044402;29;20183;-57
2021/03/27 03:29:24;;;;;;;7.63;6.90;;;;;;;;;;2032179;29;20189;-60
2021/03/27 03:30:30;;;;;;;6.60;5.87;;;;;;;;;;2039811;28;20195;-58
2021/03/27 03:31:49;;;;;;;8.10;5.70;;;;;;;;;;2046165;29;20653;-57
2021/03/27 03:32:58;;;;;;;10.67;8.50;;;;;;;;;;2041166;29;20191;-58
2021/03/27 03:33:59;;;;;;;9.10;7.90;;;;;;;;;;2040985;29;20179;-57
2021/03/27 03:34:59;;;;;;;10.37;8.30;;;;;;;;;;2048472;29;20170;-58
2021/03/27 03:36:02;;;;;;;11.30;9.90;;;;;;;;;;2042740;29;20719;-60
2021/03/27 03:37:05;;;;;;;10.70;9.60;;;;;;;;;;2048049;29;20175;-60
2021/03/27 03:38:17;;;;;;;12.40;9.17;;;;;;;;;;2043949;29;20179;-59
2021/03/27 03:39:23;;;;;;;9.73;8.70;;;;;;;;;;2045708;29;20163;-59
2021/03/27 03:40:32;;;;;;;10.43;9.10;;;;;;;;;;2034201;29;20714;-59
2021/03/27 03:41:41;;;;;;;10.20;8.53;;;;;;;;;;2039530;29;20182;-59
2021/03/27 03:43:00;;;;;;;13.97;10.23;;;;;;;;;;2042123;29;20190;-61
2021/03/27 03:44:18;;;;;;;10.40;8.93;;;;;;;;;;2041559;29;20199;-58
2021/03/27 03:45:33;;;;;;;10.40;8.73;;;;;;;;;;2044820;29;20179;-58
2021/03/27 03:46:54;;;;;;;10.87;8.33;;;;;;;;;;2046967;29;20159;-56
2021/03/27 03:48:05;;;;;;;9.73;7.77;;;;;;;;;;2023061;29;20196;-58
2021/03/27 03:49:11;;;;;;;10.20;8.07;;;;;;;;;;2026333;29;20627;-55
2021/03/27 03:50:21;;;;;;;9.00;8.10;;;;;;;;;;2035280;28;20191;-55
2021/03/27 03:51:28;;;;;;;9.53;7.67;;;;;;;;;;2049559;29;20209;-59
2021/03/27 03:52:47;;;;;;;10.97;8.70;;;;;;;;;;2050192;28;20270;-61
2021/03/27 03:53:50;;;;;;;12.07;9.13;;;;;;;;;;2050107;29;20690;-60
2021/03/27 03:54:56;;;;;;;6.43;5.83;;;;;;;;;;2049919;29;20190;-60
2021/03/27 03:55:59;;;;;;;9.87;7.23;;;;;;;;;;2050408;29;20186;-60
2021/03/27 03:57:08;;;;;;;9.80;8.73;;;;;;;;;;2043070;29;20207;-59
2021/03/27 03:58:32;;;;;;;11.53;9.60;;;;;;;;;;2042716;29;20226;-61
2021/03/27 03:59:36;;;;;;;11.47;8.93;;;;;;;;;;2025787;29;20595;-57
2021/03/27 04:00:46;;;;;;;10.23;9.20;;;;;;;;;;2033586;29;20220;-60
2021/03/27 04:01:51;;;;;;;9.37;8.27;;;;;;;;;;2034885;29;20219;-61
2021/03/27 04:03:08;;;;;;;12.70;9.30;;;;;;;;;;2045818;29;20179;-58
2021/03/27 04:04:08;;;;;;;9.23;8.30;;;;;;;;;;2048477;29;20167;-60
2021/03/27 04:05:20;;;;;;;10.77;9.17;;;;;;;;;;2050095;29;20266;-59
2021/03/27 04:06:22;;;;;;;11.43;8.77;;;;;;;;;;2046354;29;20628;-61
2021/03/27 04:07:28;;;;;;;12.37;9.10;;;;;;;;;;2042314;29;20168;-61
2021/03/27 04:08:45;;;;;;;10.97;9.87;;;;;;;;;;2043764;29;20261;-59
2021/03/27 04:09:49;;;;;;;10.27;8.10;;;;;;;;;;2048944;29;20210;-56
2021/03/27 04:10:54;;;;;;;17.37;10.20;;;;;;;;;;2049521;28;20191;-58
2021/03/27 04:12:00;;;;;;;10.23;8.77;;;;;;;;;;2049714;29;20156;-59
2021/03/27 04:13:30;;;;;;;13.03;10.23;;;;;;;;;;2049704;28;20183;-60
2021/03/27 04:14:37;;;;;;;11.60;9.93;;;;;;;;;;2032787;29;20353;-61
2021/03/27 04:16:16;;;;;;;13.03;10.50;;;;;;;;;;2045175;29;20195;-59
2021/03/27 04:17:16;;;;;;;13.50;10.00;;;;;;;;;;2017258;29;20529;-59
2021/03/27 04:18:25;;;;;;;10.97;8.93;;;;;;;;;;2016981;29;20233;-59
2021/03/27 04:19:26;;;;;;;13.67;10.10;;;;;;;;;;2016615;29;20186;-60
2021/03/27 04:20:39;;;;;;;12.70;10.97;;;;;;;;;;2016387;29;20189;-59
2021/03/27 04:21:39;;;;;;;14.47;11.37;;;;;;;;;;2023532;29;20195;-58
2021/03/27 04:22:43;;;;;;;14.47;12.53;;;;;;;;;;2023342;29;20185;-55
2021/03/27 04:23:57;;;;;;;12.40;10.20;;;;;;;;;;2039818;29;20242;-59
2021/03/27 04:25:02;;;;;;;14.63;11.10;;;;;;;;;;2035647;29;20183;-57
2021/03/27 04:26:08;;;;;;;14.53;11.13;;;;;;;;;;2039588;29;20639;-57
2021/03/27 04:27:20;;;;;;;15.90;12.13;;;;;;;;;;2041443;29;20171;-59
2021/03/27 04:28:39;;;;;;;11.47;9.40;;;;;;;;;;2037453;29;20163;-59
2021/03/27 04:29:39;;;;;;;16.47;12.03;;;;;;;;;;2045609;29;20179;-57
2021/03/27 04:31:01;;;;;;;15.97;11.47;;;;;;;;;;2047044;28;20261;-57
2021/03/27 04:32:19;;;;;;;15.17;12.17;;;;;;;;;;2017561;29;20212;-59
2021/03/27 04:33:39;;;;;;;15.83;11.37;;;;;;;;;;2030204;29;20184;-58
2021/03/27 04:34:43;;;;;;;12.90;11.47;;;;;;;;;;2046206;29;20233;-56
2021/03/27 04:35:49;;;;;;;16.63;11.87;;;;;;;;;;2031950;29;20239;-57
2021/03/27 04:36:58;;;;;;;17.47;13.13;;;;;;;;;;2035052;29;20614;-59
2021/03/27 04:37:59;;;;;;;13.37;10.70;;;;;;;;;;2041830;29;20199;-57
2021/03/27 04:39:06;;;;;;;14.67;10.77;;;;;;;;;;2047573;28;20202;-55
2021/03/27 04:40:15;;;;;;;14.37;10.07;;;;;;;;;;2041059;29;20182;-57
2021/03/27 04:41:18;;;;;;;12.30;8.73;;;;;;;;;;2040847;29;20191;-59
2021/03/27 04:42:18;;;;;;;10.53;8.57;;;;;;;;;;2044511;29;20172;-58
2021/03/27 04:43:19;;;;;;;19.00;11.63;;;;;;;;;;2037034;29;20818;-59
2021/03/27 04:44:21;;;;;;;11.00;9.10;;;;;;;;;;2032887;29;20200;-57
2021/03/27 04:45:21;;;;;;;12.90;10.60;;;;;;;;;;2025991;29;20177;-59
2021/03/27 04:46:28;;;;;;;13.50;10.60;;;;;;;;;;2028469;29;20617;-60
2021/03/27 04:47:31;;;;;;;29.07;9.57;;;;;;;;;;2044267;29;20240;-61
2021/03/27 04:48:32;;;;;;;8.50;6.63;;;;;;;;;;2046890;29;20171;-60
2021/03/27 04:49:37;;;;;;;6.43;5.80;;;;;;;;;;2034233;29;20191;-57
2021/03/27 04:50:44;;;;;;;6.63;6.03;;;;;;;;;;2037332;29;20283;-59
2021/03/27 04:51:50;;;;;;;6.53;5.93;;;;;;;;;;2039030;29;20187;-60
2021/03/27 04:52:53;;;;;;;6.13;5.53;;;;;;;;;;2033896;29;20571;-61
2021/03/27 04:53:56;;;;;;;6.67;5.10;;;;;;;;;;2042754;29;20660;-59
2021/03/27 04:55:05;;;;;;;7.47;5.23;;;;;;;;;;2039544;29;20802;-60
2021/03/27 04:56:23;;;;;;;6.30;5.70;;;;;;;;;;2033599;29;20206;-60
2021/03/27 04:57:32;;;;;;;6.40;5.13;;;;;;;;;;2040313;29;20214;-58
2021/03/27 04:58:48;;;;;;;5.43;4.90;;;;;;;;;;2043461;29;20184;-58
2021/03/27 05:00:03;;;;;;;4.63;4.23;;;;;;;;;;2043240;29;20184;-59
2021/03/27 05:01:15;;;;;;;6.80;3.90;;;;;;;;;;2035721;29;20641;-58
2021/03/27 05:02:17;;;;;;;5.63;4.20;;;;;;;;;;2043927;29;20258;-60
2021/03/27 05:03:17;;;;;;;6.63;4.30;;;;;;;;;;2043769;29;20227;-57
2021/03/27 05:04:26;;;;;;;5.23;3.87;;;;;;;;;;2046108;29;20221;-58
2021/03/27 05:05:39;;;;;;;6.80;4.00;;;;;;;;;;2043871;29;20187;-59
2021/03/27 05:06:43;;;;;;;3.47;3.17;;;;;;;;;;2046197;29;20177;-55
2021/03/27 05:08:02;;;;;;;4.37;3.97;;;;;;;;;;2040682;29;20179;-58
2021/03/27 05:09:03;;;;;;;6.03;4.17;;;;;;;;;;2041372;29;20560;-58
2021/03/27 05:10:06;;;;;;;3.80;3.40;;;;;;;;;;2037516;29;20208;-57
2021/03/27 05:11:32;;;;;;;4.27;3.60;;;;;;;;;;2038522;29;20204;-58
2021/03/27 05:12:41;;;;;;;10.17;4.17;;;;;;;;;;2043086;29;20159;-59
2021/03/27 05:13:48;;;;;;;4.00;3.60;;;;;;;;;;2046798;29;20171;-55
2021/03/27 05:14:54;;;;;;;3.80;3.50;;;;;;;;;;2041124;29;20182;-58
2021/03/27 05:15:57;;;;;;;7.80;4.60;;;;;;;;;;2036248;29;20312;-57
2021/03/27 05:17:04;;;;;;;4.10;3.80;;;;;;;;;;2042875;29;20195;-55
2021/03/27 05:18:19;;;;;;;6.97;4.43;;;;;;;;;;2047174;29;20632;-59
2021/03/27 05:19:32;;;;;;;8.17;4.27;;;;;;;;;;2040145;29;20222;-57
2021/03/27 05:20:37;;;;;;;7.10;4.10;;;;;;;;;;2045062;28;20203;-58
2021/03/27 05:21:37;;;;;;;4.90;3.87;;;;;;;;;;2047165;29;20708;-56
2021/03/27 05:22:55;;;;;;;4.03;3.57;;;;;;;;;;2034410;29;20290;-55
2021/03/27 05:23:58;;;;;;;4.43;3.80;;;;;;;;;;2031676;29;20204;-54
2021/03/27 05:25:17;;;;;;;4.33;3.97;;;;;;;;;;2044249;29;20571;-57
2021/03/27 05:26:36;;;;;;;5.20;3.60;;;;;;;;;;2045016;29;20202;-57
2021/03/27 05:27:44;;;;;;;6.57;4.27;;;;;;;;;;2048683;29;20174;-54
2021/03/27 05:28:56;;;;;;;4.13;3.73;;;;;;;;;;2041404;29;20667;-57
2021/03/27 05:30:04;;;;;;;7.60;4.37;;;;;;;;;;2041126;29;20152;-60
2021/03/27 05:31:04;;;;;;;7.27;4.47;;;;;;;;;;2043003;29;20199;-55
2021/03/27 05:32:17;;;;;;;5.63;4.43;;;;;;;;;;2046490;29;20198;-57
2021/03/27 05:33:17;;;;;;;7.17;4.03;;;;;;;;;;2035059;29;20214;-57
2021/03/27 05:34:27;;;;;;;4.40;4.00;;;;;;;;;;2024305;29;20198;-58
2021/03/27 05:35:38;;;;;;;5.57;4.17;;;;;;;;;;2029000;29;20191;-58
2021/03/27 05:36:57;;;;;;;5.20;3.67;;;;;;;;;;2033269;29;20187;-55
2021/03/27 05:38:09;;;;;;;4.67;4.00;;;;;;;;;;2040686;29;20214;-54
2021/03/27 05:39:24;;;;;;;4.40;3.97;;;;;;;;;;2045641;29;20554;-56
2021/03/27 05:40:25;;;;;;;6.83;4.47;;;;;;;;;;2045994;28;20171;-56
2021/03/27 05:41:44;;;;;;;8.60;4.50;;;;;;;;;;2045598;29;20430;-55
2021/03/27 05:43:02;;;;;;;8.17;4.40;;;;;;;;;;2040624;29;20708;-55
2021/03/27 05:44:22;;;;;;;4.33;3.90;;;;;;;;;;2038861;29;20199;-56
2021/03/27 05:45:53;;;;;;;6.93;4.90;;;;;;;;;;2046019;29;20196;-59
2021/03/27 05:47:10;;;;;;;9.67;4.90;;;;;;;;;;2035583;29;20172;-53
2021/03/27 05:48:29;;;;;;;5.37;4.60;;;;;;;;;;2044914;29;20183;-59
2021/03/27 05:49:32;;;;;;;5.00;4.50;;;;;;;;;;2045680;28;20723;-56
2021/03/27 05:50:42;;;;;;;9.60;5.43;;;;;;;;;;2042033;29;20199;-56
2021/03/27 05:52:12;;;;;;;11.43;6.17;;;;;;;;;;2042602;29;20199;-57
2021/03/27 05:53:30;;;;;;;6.97;5.30;;;;;;;;;;2039831;29;20206;-60
2021/03/27 05:54:45;;;;;;;8.37;5.93;;;;;;;;;;2043008;29;20659;-59
2021/03/27 05:55:48;;;;;;;10.40;5.77;;;;;;;;;;2042198;29;20227;-56
2021/03/27 05:57:07;;;;;;;8.50;6.33;;;;;;;;;;2042206;29;20633;-60
2021/03/27 05:58:10;;;;;;;9.60;6.63;;;;;;;;;;2024848;29;20189;-58
2021/03/27 05:59:29;;;;;;;8.27;6.57;;;;;;;;;;2031777;29;20185;-57
2021/03/27 06:00:39;;;;;;;6.93;6.23;;;;;;;;;;2034913;29;20572;-57
2021/03/27 06:01:54;;;;;;;13.10;6.67;;;;;;;;;;2032019;29;20208;-59
2021/03/27 06:03:13;;;;;;;12.37;6.73;;;;;;;;;;2042578;29;20226;-57
2021/03/27 06:04:22;;;;;;;8.13;6.30;;;;;;;;;;2041071;29;20230;-61
2021/03/27 06:05:48;;;;;;;10.30;8.10;;;;;;;;;;2031495;29;20180;-59
2021/03/27 06:06:59;;;;;;;9.33;6.67;;;;;;;;;;2039070;29;20273;-59
2021/03/27 06:07:59;;;;;;;12.00;7.10;;;;;;;;;;2038592;29;20183;-61
2021/03/27 06:09:18;;;;;;;10.27;7.40;;;;;;;;;;2034771;29;20263;-60
2021/03/27 06:10:26;;;;;;;10.30;7.07;;;;;;;;;;2035789;29;20248;-60
2021/03/27 06:11:34;;;;;;;8.77;7.20;;;;;;;;;;2039224;29;20188;-60
2021/03/27 06:12:42;;;;;;;9.70;7.37;;;;;;;;;;2042907;29;20208;-61
2021/03/27 06:13:49;;;;;;;11.73;8.07;;;;;;;;;;2036835;29;20666;-59
2021/03/27 06:14:52;;;;;;;12.23;8.10;;;;;;;;;;2037151;29;20172;-59
2021/03/27 06:15:58;;;;;;;11.53;8.27;;;;;;;;;;2041465;29;20209;-60
2021/03/27 06:17:17;;;;;;;9.23;8.13;;;;;;;;;;2037062;29;20176;-59
2021/03/27 06:18:26;;;;;;;11.40;8.23;;;;;;;;;;2030792;29;20223;-60
2021/03/27 06:19:45;;;;;;;14.47;9.03;;;;;;;;;;2034721;29;20265;-59
2021/03/27 06:21:00;;;;;;;13.47;8.47;;;;;;;;;;2044200;28;20243;-59
2021/03/27 06:22:03;;;;;;;15.23;8.30;;;;;;;;;;2041035;29;20665;-59
2021/03/27 06:23:14;;;;;;;13.30;9.17;;;;;;;;;;2043042;29;20195;-58
2021/03/27 06:24:36;;;;;;;14.43;8.93;;;;;;;;;;2033443;29;20236;-59
2021/03/27 06:25:55;;;;;;;15.33;9.33;;;;;;;;;;2034839;29;20187;-60
2021/03/27 06:27:04;;;;;;;13.53;8.97;;;;;;;;;;2041682;29;20589;-61
2021/03/27 06:28:16;;;;;;;12.97;8.87;;;;;;;;;;2033200;29;20670;-60
2021/03/27 06:29:16;;;;;;;14.70;9.93;;;;;;;;;;2036316;29;20306;-61
2021/03/27 06:30:33;;;;;;;13.67;9.03;;;;;;;;;;2034012;29;20212;-60
2021/03/27 06:31:52;;;;;;;15.70;8.77;;;;;;;;;;2028648;29;20271;-58
2021/03/27 06:33:11;;;;;;;14.87;8.70;;;;;;;;;;2034480;29;20191;-58
2021/03/27 06:34:17;;;;;;;13.43;8.97;;;;;;;;;;2042354;29;20214;-57
2021/03/27 06:35:53;;;;;;;13.67;8.60;;;;;;;;;;2043654;29;20170;-57
2021/03/27 06:36:59;;;;;;;12.17;8.57;;;;;;;;;;2019130;29;20666;-54
2021/03/27 06:38:18;;;;;;;12.83;9.20;;;;;;;;;;2018297;29;20253;-57
2021/03/27 06:39:25;;;;;;;13.27;9.23;;;;;;;;;;2031514;29;20188;-57
2021/03/27 06:40:31;;;;;;;12.07;8.83;;;;;;;;;;2043227;29;20384;-58
2021/03/27 06:41:46;;;;;;;11.83;8.40;;;;;;;;;;2039628;29;20168;-60
2021/03/27 06:42:59;;;;;;;12.03;8.53;;;;;;;;;;2041073;29;20198;-59
2021/03/27 06:44:18;;;;;;;11.23;8.53;;;;;;;;;;2040310;29;20700;-57
2021/03/27 06:45:22;;;;;;;13.73;7.63;;;;;;;;;;2041207;29;20184;-55
2021/03/27 06:46:37;;;;;;;16.50;9.77;;;;;;;;;;2041663;29;20183;-57
2021/03/27 06:47:46;;;;;;;10.97;8.53;;;;;;;;;;2043733;29;20177;-58
2021/03/27 06:48:53;;;;;;;11.10;8.30;;;;;;;;;;2046174;29;20195;-57
2021/03/27 06:49:53;;;;;;;13.13;8.80;;;;;;;;;;2036908;29;20186;-59
2021/03/27 06:51:04;;;;;;;12.93;9.30;;;;;;;;;;2042973;29;20635;-56
2021/03/27 06:52:19;;;;;;;9.63;7.40;;;;;;;;;;2044586;28;20176;-58
2021/03/27 06:53:38;;;;;;;14.43;9.13;;;;;;;;;;2030349;29;20187;-56
2021/03/27 06:54:55;;;;;;;11.97;9.00;;;;;;;;;;2039810;29;20682;-58
2021/03/27 06:56:04;;;;;;;12.93;8.30;;;;;;;;;;2042053;29;20179;-54